Time;durP1;ratioP1;P1;durP2;ratioP2;P2;SDS_P1;SDS_P2;PMS_P1;PMS_P2;Temp;Humidity;BMP_temperature;BMP_pressure;BME280_temperature;BME280_humidity;BME280_pressure;Samples;Min_cycle;Max_cycle;Signal;HPM_P1;HPM_P2
2021/07/28 00:02:41;;;;;;;0.00;0.00;;;18.00;99.90;;;;;;5046709;28;20124;-86
2021/07/28 00:05:28;;;;;;;0.00;0.00;;;17.90;99.90;;;;;;5035424;28;20041;-84
2021/07/28 00:08:15;;;;;;;0.00;0.00;;;17.80;99.90;;;;;;5030197;28;20564;-85
2021/07/28 00:11:02;;;;;;;0.00;0.00;;;17.70;99.90;;;;;;5051282;28;20119;-85
2021/07/28 00:13:50;;;;;;;0.00;0.00;;;17.70;99.90;;;;;;5054171;28;20043;-85
2021/07/28 00:16:37;;;;;;;0.10;0.10;;;17.70;99.90;;;;;;5039751;28;20048;-86
2021/07/28 00:19:29;;;;;;;0.00;0.00;;;17.60;99.90;;;;;;5055339;28;20076;-85
2021/07/28 00:25:21;;;;;;;0.00;0.00;;;17.50;99.90;;;;;;5053110;28;20045;-84
2021/07/28 00:28:09;;;;;;;0.08;0.08;;;17.40;99.90;;;;;;5037049;28;20071;-85
2021/07/28 00:30:56;;;;;;;0.00;0.00;;;17.40;99.90;;;;;;5054491;28;20555;-85
2021/07/28 00:33:43;;;;;;;0.00;0.00;;;17.30;99.90;;;;;;5039336;28;20044;-85
2021/07/28 00:36:31;;;;;;;0.00;0.00;;;17.40;99.90;;;;;;5051269;28;20041;-85
2021/07/28 00:39:18;;;;;;;0.00;0.00;;;17.30;99.90;;;;;;5053925;28;20131;-86
2021/07/28 00:42:05;;;;;;;0.00;0.00;;;17.30;99.90;;;;;;5055401;28;20041;-85
2021/07/28 00:44:52;;;;;;;0.00;0.00;;;17.20;99.90;;;;;;5052910;28;20040;-84
2021/07/28 00:47:39;;;;;;;0.00;0.00;;;17.20;99.90;;;;;;5040784;28;20052;-84
2021/07/28 00:50:26;;;;;;;0.00;0.00;;;17.10;99.90;;;;;;5054922;28;20059;-84
2021/07/28 00:53:18;;;;;;;0.00;0.00;;;17.10;99.90;;;;;;5052983;28;20051;-84
2021/07/28 00:56:07;;;;;;;0.00;0.00;;;17.10;99.90;;;;;;5036902;28;20045;-84
2021/07/28 00:58:56;;;;;;;0.00;0.00;;;17.10;99.90;;;;;;5056318;28;20067;-84
2021/07/28 01:01:43;;;;;;;0.00;0.00;;;17.00;99.90;;;;;;5034526;28;20496;-84
2021/07/28 01:04:30;;;;;;;0.00;0.00;;;17.00;99.90;;;;;;5035888;28;20467;-84
2021/07/28 01:07:17;;;;;;;0.00;0.00;;;17.00;99.90;;;;;;5054059;28;20132;-84
2021/07/28 01:10:06;;;;;;;0.00;0.00;;;16.90;99.90;;;;;;5052308;28;20119;-86
2021/07/28 01:12:54;;;;;;;0.00;0.00;;;16.90;99.90;;;;;;5039349;28;20151;-86
2021/07/28 01:15:43;;;;;;;0.00;0.00;;;16.90;99.90;;;;;;5051944;28;20147;-85
2021/07/28 01:18:31;;;;;;;0.07;0.07;;;16.90;99.90;;;;;;5053832;28;20126;-85
2021/07/28 01:21:19;;;;;;;0.00;0.00;;;16.90;99.90;;;;;;5037901;28;20333;-86
2021/07/28 01:24:10;;;;;;;0.00;0.00;;;16.80;99.90;;;;;;5036439;28;20055;-84
2021/07/28 01:27:01;;;;;;;0.00;0.00;;;16.70;99.90;;;;;;5038377;28;20530;-84
2021/07/28 01:29:48;;;;;;;0.00;0.00;;;16.60;99.90;;;;;;5052886;28;20051;-85
2021/07/28 01:32:36;;;;;;;0.00;0.00;;;16.60;99.90;;;;;;5039540;28;20055;-85
2021/07/28 01:35:24;;;;;;;0.00;0.00;;;16.60;99.90;;;;;;5053170;28;20037;-85
2021/07/28 01:38:11;;;;;;;0.00;0.00;;;16.50;99.90;;;;;;5052512;28;20411;-84
2021/07/28 01:41:01;;;;;;;0.00;0.00;;;16.50;99.90;;;;;;5055520;28;20100;-84
2021/07/28 01:43:48;;;;;;;;;;;16.50;99.90;;;;;;5036942;28;20488;-83
2021/07/28 01:46:35;;;;;;;0.00;0.00;;;16.40;99.90;;;;;;5040784;28;19920;-84
2021/07/28 01:49:22;;;;;;;0.00;0.00;;;16.40;99.90;;;;;;5053726;28;20135;-85
2021/07/28 01:52:09;;;;;;;0.00;0.00;;;16.30;99.90;;;;;;5052793;28;20055;-86
2021/07/28 01:54:56;;;;;;;0.00;0.00;;;16.40;99.90;;;;;;5034229;28;20041;-86
2021/07/28 01:57:45;;;;;;;0.00;0.00;;;16.30;99.90;;;;;;5042729;28;20045;-85
2021/07/28 02:00:32;;;;;;;0.00;0.00;;;16.40;99.90;;;;;;5053459;28;20475;-85
2021/07/28 02:03:19;;;;;;;0.00;0.00;;;16.30;99.90;;;;;;5053498;28;20040;-84
2021/07/28 02:06:07;;;;;;;0.00;0.00;;;16.30;99.90;;;;;;5040137;28;20080;-84
2021/07/28 02:08:54;;;;;;;0.00;0.00;;;16.30;99.90;;;;;;5045382;28;20510;-87
2021/07/28 02:11:41;;;;;;;0.00;0.00;;;16.30;99.90;;;;;;5034417;28;20041;-86
2021/07/28 02:14:29;;;;;;;0.00;0.00;;;16.40;99.90;;;;;;5053827;28;20412;-84
2021/07/28 02:17:17;;;;;;;0.00;0.00;;;16.30;99.90;;;;;;5037264;28;20049;-85
2021/07/28 02:20:05;;;;;;;0.00;0.00;;;16.30;99.90;;;;;;5054136;28;20037;-85
2021/07/28 02:22:53;;;;;;;0.00;0.00;;;16.20;99.90;;;;;;5038264;28;20435;-85
2021/07/28 02:25:40;;;;;;;0.00;0.00;;;16.30;99.90;;;;;;5053120;28;20557;-86
2021/07/28 02:28:29;;;;;;;0.00;0.00;;;16.30;99.90;;;;;;5054139;28;20515;-85
2021/07/28 02:31:18;;;;;;;0.00;0.00;;;16.20;99.90;;;;;;5049215;28;20043;-84
2021/07/28 02:34:05;;;;;;;0.00;0.00;;;16.20;99.90;;;;;;5049120;28;20055;-86
2021/07/28 02:36:52;;;;;;;0.00;0.00;;;16.20;99.90;;;;;;5051401;28;20056;-85
2021/07/28 02:39:39;;;;;;;0.00;0.00;;;16.20;99.90;;;;;;5037893;28;20045;-85
2021/07/28 02:42:26;;;;;;;0.00;0.00;;;16.30;99.90;;;;;;5048035;28;20045;-86
2021/07/28 02:45:13;;;;;;;0.00;0.00;;;16.20;99.90;;;;;;5050179;28;20041;-86
2021/07/28 02:48:04;;;;;;;0.00;0.00;;;16.20;99.90;;;;;;5041276;28;20504;-85
2021/07/28 02:50:51;;;;;;;0.00;0.00;;;16.20;99.90;;;;;;5052635;28;20648;-85
2021/07/28 02:53:38;;;;;;;0.00;0.00;;;16.10;99.90;;;;;;5037099;28;20069;-85
2021/07/28 02:56:25;;;;;;;0.00;0.00;;;16.20;99.90;;;;;;5051966;28;20064;-85
2021/07/28 02:59:12;;;;;;;0.00;0.00;;;16.10;99.90;;;;;;5053183;28;20504;-87
2021/07/28 03:01:59;;;;;;;0.00;0.00;;;16.10;99.90;;;;;;5050876;28;20040;-85
2021/07/28 03:04:48;;;;;;;0.00;0.00;;;16.20;99.90;;;;;;5036993;28;20049;-86
2021/07/28 03:07:35;;;;;;;0.00;0.00;;;16.20;99.90;;;;;;5039452;28;20072;-86
2021/07/28 03:10:22;;;;;;;0.00;0.00;;;16.20;99.90;;;;;;5033501;28;20175;-86
2021/07/28 03:13:09;;;;;;;0.00;0.00;;;16.20;99.90;;;;;;5039514;28;20127;-85
2021/07/28 03:16:04;;;;;;;0.00;0.00;;;16.20;99.90;;;;;;5051960;28;20060;-86
2021/07/28 03:18:51;;;;;;;0.00;0.00;;;16.20;99.90;;;;;;5053396;28;20037;-86
2021/07/28 03:21:39;;;;;;;0.00;0.00;;;16.10;99.90;;;;;;5051666;28;20052;-85
2021/07/28 03:24:26;;;;;;;0.00;0.00;;;16.10;99.90;;;;;;5036256;28;20037;-86
2021/07/28 03:27:13;;;;;;;0.00;0.00;;;16.10;99.90;;;;;;5035542;28;20049;-85
2021/07/28 03:30:00;;;;;;;0.00;0.00;;;16.10;99.90;;;;;;5039075;28;20431;-84
2021/07/28 03:32:47;;;;;;;0.00;0.00;;;16.00;99.90;;;;;;5054964;28;20072;-84
2021/07/28 03:35:35;;;;;;;0.00;0.00;;;16.00;99.90;;;;;;5034911;28;20127;-85
2021/07/28 03:38:23;;;;;;;0.00;0.00;;;16.00;99.90;;;;;;5040096;28;20084;-84
2021/07/28 03:41:10;;;;;;;0.00;0.00;;;16.10;99.90;;;;;;5051726;28;20045;-86
2021/07/28 03:43:57;;;;;;;0.00;0.00;;;16.10;99.90;;;;;;5053806;28;20055;-85
2021/07/28 03:46:44;;;;;;;0.00;0.00;;;16.10;99.90;;;;;;5050188;28;20112;-85
2021/07/28 03:49:31;;;;;;;0.00;0.00;;;16.10;99.90;;;;;;5041608;28;20124;-84
2021/07/28 03:52:19;;;;;;;0.00;0.00;;;16.10;99.90;;;;;;5049776;28;20132;-84
2021/07/28 03:55:08;;;;;;;0.00;0.00;;;16.20;99.90;;;;;;5040549;28;20041;-85
2021/07/28 03:57:56;;;;;;;0.00;0.00;;;16.20;99.90;;;;;;5050575;28;20124;-84
2021/07/28 04:00:43;;;;;;;0.00;0.00;;;16.20;99.90;;;;;;5054211;28;20398;-84
2021/07/28 04:03:30;;;;;;;0.00;0.00;;;16.20;99.90;;;;;;5052217;28;20052;-86
2021/07/28 04:06:17;;;;;;;0.00;0.00;;;16.10;99.90;;;;;;5035666;28;20052;-83
2021/07/28 04:09:04;;;;;;;0.00;0.00;;;16.10;99.90;;;;;;5055135;28;20040;-86
2021/07/28 04:11:52;;;;;;;0.00;0.00;;;16.20;99.90;;;;;;5052277;28;20047;-84
2021/07/28 04:14:40;;;;;;;0.00;0.00;;;16.20;99.90;;;;;;5040759;28;20043;-85
2021/07/28 04:17:27;;;;;;;0.00;0.00;;;16.20;99.90;;;;;;5052796;28;20523;-85
2021/07/28 04:20:15;;;;;;;0.00;0.00;;;16.20;99.90;;;;;;5053249;28;20132;-84
2021/07/28 04:23:02;;;;;;;0.05;0.05;;;16.20;99.90;;;;;;5037177;28;20078;-84
2021/07/28 04:25:49;;;;;;;0.00;0.00;;;16.20;99.90;;;;;;5038298;28;20424;-85
2021/07/28 04:28:38;;;;;;;0.00;0.00;;;16.20;99.90;;;;;;5035225;28;20045;-86
2021/07/28 04:31:25;;;;;;;0.00;0.00;;;16.30;99.90;;;;;;5055227;28;20143;-86
2021/07/28 04:34:12;;;;;;;0.00;0.00;;;16.30;99.90;;;;;;5037130;28;20060;-85
2021/07/28 04:36:59;;;;;;;0.00;0.00;;;16.30;99.90;;;;;;5050316;28;20048;-85
2021/07/28 04:39:46;;;;;;;0.00;0.00;;;16.30;99.90;;;;;;5052302;28;20124;-85
2021/07/28 04:42:34;;;;;;;0.00;0.00;;;16.40;99.90;;;;;;5037843;28;20045;-85
2021/07/28 04:45:22;;;;;;;0.00;0.00;;;16.40;99.90;;;;;;5051227;28;20067;-86
2021/07/28 04:48:09;;;;;;;0.00;0.00;;;16.40;99.90;;;;;;5039253;28;20045;-85
2021/07/28 04:50:58;;;;;;;0.00;0.00;;;16.40;99.90;;;;;;5036182;28;20538;-86
2021/07/28 04:53:45;;;;;;;0.00;0.00;;;16.40;99.90;;;;;;5032906;28;20052;-84
2021/07/28 04:56:32;;;;;;;0.00;0.00;;;16.50;99.90;;;;;;5034753;28;20090;-85
2021/07/28 04:59:19;;;;;;;0.00;0.00;;;16.40;99.90;;;;;;5035862;28;20610;-86
2021/07/28 05:02:08;;;;;;;0.00;0.00;;;16.50;99.90;;;;;;5037269;28;20132;-86
2021/07/28 05:04:55;;;;;;;0.00;0.00;;;16.60;99.90;;;;;;5033614;28;20037;-85
2021/07/28 05:07:42;;;;;;;0.05;0.05;;;16.60;99.90;;;;;;5049201;28;20504;-84
2021/07/28 05:10:29;;;;;;;0.00;0.00;;;16.60;99.90;;;;;;5038365;28;20045;-85
2021/07/28 05:13:16;;;;;;;0.00;0.00;;;16.70;99.90;;;;;;5051258;28;20440;-86
2021/07/28 05:16:04;;;;;;;0.00;0.00;;;16.70;99.90;;;;;;5034789;28;20536;-85
2021/07/28 05:18:52;;;;;;;0.00;0.00;;;16.70;99.90;;;;;;5046251;28;20515;-85
2021/07/28 05:21:39;;;;;;;0.00;0.00;;;16.70;99.90;;;;;;5036244;28;20108;-86
2021/07/28 05:24:26;;;;;;;0.00;0.00;;;16.70;99.90;;;;;;5051150;28;20068;-85
2021/07/28 05:27:13;;;;;;;0.00;0.00;;;16.80;99.90;;;;;;5033403;28;20527;-85
2021/07/28 05:30:01;;;;;;;0.00;0.00;;;16.90;99.90;;;;;;5038229;28;20041;-86
2021/07/28 05:35:19;;;;;;;0.00;0.00;;;16.90;99.90;;;;;;5036717;28;20057;-86
2021/07/28 05:38:06;;;;;;;0.00;0.00;;;17.00;99.90;;;;;;5038700;28;20509;-86
2021/07/28 05:40:55;;;;;;;0.00;0.00;;;17.10;99.90;;;;;;5028582;28;20041;-84
2021/07/28 05:43:43;;;;;;;0.00;0.00;;;17.20;99.90;;;;;;5022131;28;20045;-84
2021/07/28 05:46:30;;;;;;;0.00;0.00;;;17.30;99.90;;;;;;5021740;28;20128;-85
2021/07/28 05:49:18;;;;;;;0.00;0.00;;;17.40;99.90;;;;;;5034930;28;20533;-85
2021/07/28 05:52:07;;;;;;;0.00;0.00;;;17.40;99.90;;;;;;5036472;28;20045;-84
2021/07/28 05:54:54;;;;;;;0.00;0.00;;;17.40;99.90;;;;;;5031982;28;20087;-84
2021/07/28 05:57:41;;;;;;;0.00;0.00;;;17.50;99.90;;;;;;5023229;28;20130;-85
2021/07/28 06:00:28;;;;;;;0.10;0.10;;;17.50;99.90;;;;;;5020309;28;20045;-84
2021/07/28 06:03:16;;;;;;;0.00;0.00;;;17.50;99.90;;;;;;5019551;28;20069;-85
2021/07/28 06:06:03;;;;;;;0.00;0.00;;;17.60;99.90;;;;;;5018634;28;20112;-84
2021/07/28 06:08:51;;;;;;;0.00;0.00;;;17.60;99.90;;;;;;5026884;28;20080;-84
2021/07/28 06:11:38;;;;;;;0.00;0.00;;;17.60;99.90;;;;;;5023939;28;20120;-83
2021/07/28 06:14:26;;;;;;;0.00;0.00;;;17.70;99.90;;;;;;5019388;28;20051;-84
2021/07/28 06:17:13;;;;;;;0.00;0.00;;;17.80;99.90;;;;;;5018164;28;20052;-84
2021/07/28 06:20:01;;;;;;;0.00;0.00;;;17.90;99.90;;;;;;5016155;28;20076;-85
2021/07/28 06:22:48;;;;;;;0.00;0.00;;;18.00;99.90;;;;;;5033267;28;20500;-84
2021/07/28 06:25:36;;;;;;;0.00;0.00;;;18.10;99.90;;;;;;5018921;28;20043;-86
2021/07/28 06:28:24;;;;;;;0.00;0.00;;;18.20;99.90;;;;;;5030100;28;20105;-84
2021/07/28 06:31:11;;;;;;;0.00;0.00;;;18.40;99.90;;;;;;5015334;28;20543;-86
2021/07/28 06:33:58;;;;;;;0.00;0.00;;;18.40;99.90;;;;;;5031933;28;20053;-84
2021/07/28 06:36:46;;;;;;;0.00;0.00;;;18.70;99.90;;;;;;5028529;28;20048;-84
2021/07/28 06:39:33;;;;;;;0.00;0.00;;;18.80;99.90;;;;;;5030167;28;20037;-86
2021/07/28 06:42:21;;;;;;;0.00;0.00;;;19.10;99.90;;;;;;5030224;28;20038;-83
2021/07/28 06:45:09;;;;;;;0.00;0.00;;;19.20;99.90;;;;;;5010064;28;20092;-84
2021/07/28 06:47:56;;;;;;;0.00;0.00;;;19.30;99.90;;;;;;5020750;28;20037;-86
2021/07/28 06:50:43;;;;;;;0.00;0.00;;;19.70;99.90;;;;;;5012486;28;20128;-85
2021/07/28 06:53:30;;;;;;;0.00;0.00;;;19.50;99.90;;;;;;5013689;28;20072;-86
2021/07/28 06:56:22;;;;;;;0.00;0.00;;;19.40;99.90;;;;;;5012183;28;20421;-84
2021/07/28 06:59:10;;;;;;;0.00;0.00;;;19.40;99.90;;;;;;5032817;28;20548;-84
2021/07/28 07:01:57;;;;;;;0.00;0.00;;;19.40;99.90;;;;;;5013757;28;20100;-84
2021/07/28 07:04:45;;;;;;;0.00;0.00;;;19.40;99.90;;;;;;5012688;28;20049;-86
2021/07/28 07:07:32;;;;;;;0.00;0.00;;;19.60;99.90;;;;;;5022756;28;20136;-80
2021/07/28 07:10:19;;;;;;;0.00;0.00;;;19.50;99.90;;;;;;5024062;28;20125;-86
2021/07/28 07:13:06;;;;;;;0.10;0.00;;;19.50;99.90;;;;;;5006543;28;20109;-85
2021/07/28 07:15:55;;;;;;;0.00;0.00;;;19.50;99.90;;;;;;5031826;28;20041;-87
2021/07/28 07:18:42;;;;;;;0.00;0.00;;;19.60;99.90;;;;;;5030166;28;20555;-84
2021/07/28 07:21:29;;;;;;;0.00;0.00;;;19.60;99.90;;;;;;5015283;28;20041;-85
2021/07/28 07:24:16;;;;;;;0.00;0.00;;;20.90;99.90;;;;;;5015729;28;20632;-84
2021/07/28 07:27:03;;;;;;;0.00;0.00;;;19.90;99.90;;;;;;5029986;28;20042;-85
2021/07/28 07:29:50;;;;;;;0.00;0.00;;;19.90;99.90;;;;;;5020553;28;20054;-84
2021/07/28 07:32:39;;;;;;;0.00;0.00;;;19.80;99.90;;;;;;5010283;28;20108;-86
2021/07/28 07:35:26;;;;;;;0.00;0.00;;;20.00;99.90;;;;;;5008562;28;20176;-86
2021/07/28 07:38:13;;;;;;;0.00;0.00;;;20.20;99.90;;;;;;5023885;28;20076;-83
2021/07/28 07:41:01;;;;;;;0.00;0.00;;;20.50;99.90;;;;;;5008322;28;20049;-83
2021/07/28 07:43:48;;;;;;;0.00;0.00;;;20.60;99.90;;;;;;5024396;28;20056;-84
2021/07/28 07:46:35;;;;;;;0.00;0.00;;;20.90;99.90;;;;;;5022287;28;20094;-86
2021/07/28 07:49:23;;;;;;;0.00;0.00;;;21.10;99.90;;;;;;5013942;28;20053;-83
2021/07/28 07:52:10;;;;;;;0.00;0.00;;;21.30;99.90;;;;;;5018886;28;20045;-85
2021/07/28 07:54:58;;;;;;;0.00;0.00;;;21.50;99.90;;;;;;5024415;28;20108;-86
2021/07/28 07:57:45;;;;;;;0.00;0.00;;;21.80;99.90;;;;;;5021624;28;20085;-85
2021/07/28 08:00:32;;;;;;;0.00;0.00;;;21.70;99.90;;;;;;5007601;28;20184;-86
2021/07/28 08:03:19;;;;;;;0.00;0.00;;;21.70;99.90;;;;;;5021992;28;20091;-86
2021/07/28 08:06:09;;;;;;;0.00;0.00;;;21.90;99.90;;;;;;5019140;28;20516;-85
2021/07/28 08:08:56;;;;;;;0.00;0.00;;;22.00;99.90;;;;;;5002273;28;20037;-84
2021/07/28 08:11:43;;;;;;;0.00;0.00;;;22.10;99.90;;;;;;5026434;28;20054;-81
2021/07/28 08:14:30;;;;;;;0.00;0.00;;;22.20;99.90;;;;;;5029272;28;20174;-84
2021/07/28 08:17:17;;;;;;;0.00;0.00;;;22.30;99.90;;;;;;5022124;28;20484;-84
2021/07/28 08:20:06;;;;;;;0.00;0.00;;;22.40;99.90;;;;;;5023882;28;20060;-86
2021/07/28 08:22:54;;;;;;;0.00;0.00;;;22.60;99.90;;;;;;5015652;28;20520;-86
2021/07/28 08:25:42;;;;;;;0.00;0.00;;;22.60;99.90;;;;;;5024900;28;20042;-84
2021/07/28 08:28:29;;;;;;;0.00;0.00;;;22.60;99.90;;;;;;5023446;28;20107;-86
2021/07/28 08:31:16;;;;;;;0.00;0.00;;;22.60;99.90;;;;;;5009861;28;20053;-86
2021/07/28 08:34:03;;;;;;;0.00;0.00;;;22.80;99.90;;;;;;5018618;28;20045;-84
2021/07/28 08:36:50;;;;;;;0.00;0.00;;;22.80;99.90;;;;;;5017516;28;20048;-84
2021/07/28 08:39:39;;;;;;;0.00;0.00;;;24.60;99.90;;;;;;5023291;28;20124;-85
2021/07/28 08:42:27;;;;;;;0.00;0.00;;;24.30;99.90;;;;;;5029964;28;20139;-82
2021/07/28 08:45:15;;;;;;;0.00;0.00;;;23.20;99.90;;;;;;5031360;28;20596;-85
2021/07/28 08:48:04;;;;;;;0.00;0.00;;;23.20;99.90;;;;;;5015212;28;20041;-84
2021/07/28 08:50:55;;;;;;;0.00;0.00;;;23.10;99.90;;;;;;5025998;28;20505;-83
2021/07/28 08:53:42;;;;;;;0.00;0.00;;;23.20;99.90;;;;;;5008544;28;20111;-86
2021/07/28 08:56:31;;;;;;;0.00;0.00;;;23.30;99.90;;;;;;5026060;28;20567;-83
2021/07/28 08:59:24;;;;;;;0.00;0.00;;;23.30;99.90;;;;;;5012477;28;20420;-86
2021/07/28 09:02:11;;;;;;;0.00;0.00;;;23.40;99.90;;;;;;5021962;28;20824;-86
2021/07/28 09:04:58;;;;;;;0.00;0.00;;;23.60;99.90;;;;;;5013929;28;20048;-84
2021/07/28 09:07:53;;;;;;;0.00;0.00;;;23.70;99.90;;;;;;5029401;28;20176;-86
2021/07/28 09:10:48;;;;;;;0.00;0.00;;;23.80;99.90;;;;;;5031071;28;20051;-85
2021/07/28 09:13:39;;;;;;;0.00;0.00;;;23.80;99.90;;;;;;5027278;28;20132;-86
2021/07/28 09:16:33;;;;;;;0.00;0.00;;;23.90;99.90;;;;;;5012429;28;20038;-85
2021/07/28 09:19:41;;;;;;;0.00;0.00;;;24.00;99.90;;;;;;5013041;28;20505;-82
2021/07/28 09:22:32;;;;;;;0.00;0.00;;;23.90;99.90;;;;;;5006936;28;20042;-85
2021/07/28 09:28:18;;;;;;;0.00;0.00;;;24.00;99.90;;;;;;5029511;28;20482;-84
2021/07/28 09:31:06;;;;;;;0.00;0.00;;;24.40;99.90;;;;;;5010074;28;20046;-83
2021/07/28 09:34:07;;;;;;;0.00;0.00;;;24.50;99.90;;;;;;5019703;28;20056;-82
2021/07/28 09:36:55;;;;;;;0.00;0.00;;;24.70;99.90;;;;;;5013426;28;20419;-84
2021/07/28 09:39:44;;;;;;;0.00;0.00;;;24.80;99.50;;;;;;5016319;28;20200;-85
2021/07/28 09:42:31;;;;;;;0.00;0.00;;;24.90;98.30;;;;;;5012242;28;20063;-84
2021/07/28 09:45:27;;;;;;;0.00;0.00;;;24.70;99.30;;;;;;5026582;28;20056;-86
2021/07/28 09:48:36;;;;;;;0.00;0.00;;;24.70;98.80;;;;;;5028410;28;20040;-80
2021/07/28 09:51:26;;;;;;;0.00;0.00;;;24.50;99.00;;;;;;5028254;28;20538;-84
2021/07/28 09:54:14;;;;;;;0.00;0.00;;;24.40;99.10;;;;;;5009715;28;20457;-85
2021/07/28 09:57:01;;;;;;;0.00;0.00;;;24.40;99.60;;;;;;5018761;28;21388;-84
2021/07/28 09:59:52;;;;;;;0.00;0.00;;;24.50;99.90;;;;;;5022980;28;20452;-84
2021/07/28 10:02:43;;;;;;;0.00;0.00;;;24.70;99.90;;;;;;5023517;28;20049;-86
2021/07/28 10:05:33;;;;;;;0.00;0.00;;;24.60;99.90;;;;;;5020339;28;20049;-85
2021/07/28 10:08:21;;;;;;;0.00;0.00;;;24.80;99.90;;;;;;5031363;28;20053;-86
2021/07/28 10:11:13;;;;;;;0.00;0.00;;;24.90;99.30;;;;;;5024189;28;20084;-84
2021/07/28 10:14:01;;;;;;;0.00;0.00;;;24.90;99.30;;;;;;5006610;28;20053;-85
2021/07/28 10:16:48;;;;;;;0.00;0.00;;;24.60;99.80;;;;;;5014617;28;20038;-85
2021/07/28 10:19:36;;;;;;;0.00;0.00;;;24.50;99.90;;;;;;5013123;28;21460;-85
2021/07/28 10:22:42;;;;;;;0.00;0.00;;;24.40;99.90;;;;;;5013585;28;20453;-84
2021/07/28 10:25:30;;;;;;;0.00;0.00;;;24.50;99.50;;;;;;5007696;28;20045;-85
2021/07/28 10:28:17;;;;;;;0.00;0.00;;;24.70;99.90;;;;;;5012402;28;20049;-86
2021/07/28 10:31:11;;;;;;;0.00;0.00;;;24.90;99.70;;;;;;5021201;28;20052;-85
2021/07/28 10:33:58;;;;;;;0.00;0.00;;;25.10;99.30;;;;;;5024613;28;20449;-85
2021/07/28 10:36:47;;;;;;;0.00;0.00;;;25.80;98.90;;;;;;5011186;28;20046;-86
2021/07/28 10:39:41;;;;;;;0.00;0.00;;;25.10;98.60;;;;;;5023924;28;20052;-86
2021/07/28 10:43:02;;;;;;;0.00;0.00;;;25.10;98.70;;;;;;5006109;28;20128;-85
2021/07/28 10:45:54;;;;;;;0.00;0.00;;;24.90;99.10;;;;;;5030323;28;20049;-85
2021/07/28 10:48:51;;;;;;;0.00;0.00;;;24.80;98.90;;;;;;5009531;28;20045;-84
2021/07/28 10:51:52;;;;;;;0.00;0.00;;;24.70;99.40;;;;;;5013581;28;20049;-84
2021/07/28 10:55:12;;;;;;;0.00;0.00;;;24.60;98.70;;;;;;5011481;28;20054;-85
2021/07/28 10:58:24;;;;;;;0.00;0.00;;;24.70;99.10;;;;;;5011195;28;20128;-86
2021/07/28 11:01:11;;;;;;;0.00;0.00;;;25.20;98.70;;;;;;5008931;28;20097;-86
2021/07/28 11:04:23;;;;;;;0.00;0.00;;;25.00;98.80;;;;;;5022355;28;20046;-82
2021/07/28 11:07:10;;;;;;;0.00;0.00;;;24.80;98.70;;;;;;5024761;28;20045;-85
2021/07/28 11:10:04;;;;;;;0.00;0.00;;;24.40;99.90;;;;;;5023107;28;20443;-85
2021/07/28 11:12:52;;;;;;;0.00;0.00;;;23.90;99.90;;;;;;5012387;28;20279;-86
2021/07/28 11:15:41;;;;;;;0.00;0.00;;;23.20;99.90;;;;;;5003079;28;20113;-84
2021/07/28 11:18:36;;;;;;;0.00;0.00;;;22.30;99.90;;;;;;4996804;28;20049;-85
2021/07/28 11:21:32;;;;;;;0.00;0.00;;;21.90;99.90;;;;;;5026358;28;20044;-83
2021/07/28 11:24:20;;;;;;;0.00;0.00;;;21.50;99.90;;;;;;5018287;28;20061;-82
2021/07/28 11:27:10;;;;;;;0.00;0.00;;;21.90;99.90;;;;;;5009391;28;20045;-86
2021/07/28 11:30:13;;;;;;;0.00;0.00;;;21.40;99.90;;;;;;5023532;28;20045;-85
2021/07/28 11:38:13;;;;;;;0.00;0.00;;;21.80;99.90;;;;;;5045156;28;20114;-85
2021/07/28 11:41:01;;;;;;;0.00;0.00;;;22.10;99.90;;;;;;5038816;28;20150;-85
2021/07/28 11:43:49;;;;;;;0.00;0.00;;;22.40;99.90;;;;;;5049190;28;20488;-85
2021/07/28 11:46:38;;;;;;;0.00;0.00;;;22.60;99.90;;;;;;5031236;28;20041;-87
2021/07/28 11:49:26;;;;;;;0.00;0.00;;;22.90;99.90;;;;;;5031368;28;20079;-87
2021/07/28 11:52:13;;;;;;;0.00;0.00;;;23.10;99.90;;;;;;5036024;28;20081;-85
2021/07/28 11:55:00;;;;;;;0.00;0.00;;;23.20;99.90;;;;;;5040334;28;20108;-87
2021/07/28 11:57:48;;;;;;;0.00;0.00;;;23.10;99.90;;;;;;5052838;28;20140;-84
2021/07/28 12:00:39;;;;;;;0.00;0.00;;;;;;;;;;5039381;28;20049;-86
2021/07/28 12:03:29;;;;;;;0.00;0.00;;;23.20;99.90;;;;;;5051162;28;20041;-86
2021/07/28 12:06:29;;;;;;;0.00;0.00;;;23.30;99.90;;;;;;5046882;28;20099;-86
2021/07/28 12:09:17;;;;;;;;;;;23.40;99.90;;;;;;5035601;28;20135;-86
2021/07/28 12:12:05;;;;;;;0.00;0.00;;;23.50;99.90;;;;;;5037538;28;19967;-85
2021/07/28 12:15:07;;;;;;;0.00;0.00;;;23.80;99.90;;;;;;5035685;28;20045;-83
2021/07/28 12:17:54;;;;;;;0.00;0.00;;;23.80;99.90;;;;;;5039688;28;20033;-86
2021/07/28 12:20:55;;;;;;;0.00;0.00;;;23.80;99.90;;;;;;5043664;28;20057;-84
2021/07/28 12:23:50;;;;;;;0.00;0.00;;;23.80;99.90;;;;;;5038520;28;20049;-85
2021/07/28 12:26:46;;;;;;;0.00;0.00;;;23.90;99.90;;;;;;5041600;28;20095;-85
2021/07/28 12:29:33;;;;;;;0.00;0.00;;;24.10;99.90;;;;;;5050855;28;20513;-86
2021/07/28 12:32:34;;;;;;;0.00;0.00;;;24.00;99.90;;;;;;5055118;28;20180;-85
2021/07/28 12:35:31;;;;;;;0.00;0.00;;;24.00;99.90;;;;;;5040185;28;20056;-86
2021/07/28 12:38:21;;;;;;;0.00;0.00;;;23.80;99.90;;;;;;5037389;28;20127;-86
2021/07/28 12:41:08;;;;;;;0.00;0.00;;;23.80;99.90;;;;;;5039431;28;20049;-86
2021/07/28 12:43:55;;;;;;;0.00;0.00;;;23.80;99.90;;;;;;5035956;28;20124;-86
2021/07/28 12:46:42;;;;;;;0.00;0.00;;;23.50;99.90;;;;;;5050965;28;20562;-87
2021/07/28 12:49:29;;;;;;;0.00;0.00;;;23.30;99.90;;;;;;5038830;28;20056;-84
2021/07/28 12:52:16;;;;;;;0.00;0.00;;;23.30;99.90;;;;;;5034436;28;20067;-84
2021/07/28 12:55:06;;;;;;;0.00;0.00;;;23.40;99.90;;;;;;5033627;28;20167;-86
2021/07/28 12:57:53;;;;;;;;;;;23.10;99.90;;;;;;5038570;28;20075;-84
2021/07/28 13:00:41;;;;;;;0.00;0.00;;;22.90;99.90;;;;;;5034047;28;19935;-86
2021/07/28 13:03:29;;;;;;;0.00;0.00;;;22.70;99.90;;;;;;5051174;28;20140;-85
2021/07/28 13:06:17;;;;;;;0.00;0.00;;;22.90;99.90;;;;;;5051001;28;20306;-84
2021/07/28 13:09:04;;;;;;;0.00;0.00;;;23.00;99.90;;;;;;5050753;28;20181;-84
2021/07/28 13:11:52;;;;;;;0.00;0.00;;;23.10;99.90;;;;;;5035857;28;20049;-86
2021/07/28 13:14:39;;;;;;;0.00;0.00;;;23.30;99.90;;;;;;5038422;28;20136;-84
2021/07/28 13:17:26;;;;;;;0.00;0.00;;;23.70;99.90;;;;;;5052832;28;20049;-84
2021/07/28 13:20:13;;;;;;;0.00;0.00;;;23.80;99.90;;;;;;5037930;28;20051;-85
2021/07/28 13:23:02;;;;;;;0.00;0.00;;;23.80;99.90;;;;;;5053579;28;20055;-85
2021/07/28 13:25:49;;;;;;;0.00;0.00;;;23.80;99.90;;;;;;5034048;28;20132;-86
2021/07/28 13:28:38;;;;;;;0.00;0.00;;;23.70;99.90;;;;;;5036543;28;20048;-86
2021/07/28 13:31:25;;;;;;;0.00;0.00;;;23.90;99.90;;;;;;5038714;28;20504;-85
2021/07/28 13:34:12;;;;;;;0.00;0.00;;;24.10;99.90;;;;;;5039344;28;20052;-85
2021/07/28 13:37:00;;;;;;;0.00;0.00;;;24.30;99.90;;;;;;5035389;28;20075;-86
2021/07/28 13:39:47;;;;;;;0.00;0.00;;;24.60;99.90;;;;;;5032732;28;20048;-85
2021/07/28 13:42:34;;;;;;;0.00;0.00;;;24.80;99.90;;;;;;5050581;28;20049;-85
2021/07/28 13:45:23;;;;;;;0.00;0.00;;;24.80;99.90;;;;;;5035162;28;20512;-82
2021/07/28 13:48:10;;;;;;;0.00;0.00;;;24.90;99.90;;;;;;5035962;28;20555;-86
2021/07/28 13:50:57;;;;;;;0.00;0.00;;;24.90;99.90;;;;;;5031671;28;20173;-86
2021/07/28 13:53:48;;;;;;;0.00;0.00;;;24.60;99.90;;;;;;5038571;28;20049;-85
2021/07/28 13:56:35;;;;;;;0.00;0.00;;;24.60;99.90;;;;;;5051305;28;20047;-85
2021/07/28 13:59:22;;;;;;;0.00;0.00;;;24.70;99.90;;;;;;5035452;28;20385;-84
2021/07/28 14:02:12;;;;;;;0.00;0.00;;;24.90;99.90;;;;;;5047663;28;20045;-86
2021/07/28 14:05:01;;;;;;;0.00;0.00;;;25.00;99.90;;;;;;5033749;28;20041;-83
2021/07/28 14:07:50;;;;;;;0.00;0.00;;;25.30;99.90;;;;;;5052012;28;20050;-85
2021/07/28 14:10:39;;;;;;;0.00;0.00;;;25.00;99.90;;;;;;5044446;28;20052;-85
2021/07/28 14:13:28;;;;;;;0.00;0.00;;;25.20;99.90;;;;;;5032996;28;20041;-84
2021/07/28 14:16:16;;;;;;;0.00;0.00;;;25.40;99.90;;;;;;5035748;28;20041;-85
2021/07/28 14:19:05;;;;;;;0.00;0.00;;;26.00;99.70;;;;;;5048168;28;20511;-86
2021/07/28 14:21:52;;;;;;;0.00;0.00;;;26.30;98.70;;;;;;5033706;28;20114;-84
2021/07/28 14:24:39;;;;;;;0.00;0.00;;;26.40;96.60;;;;;;5046290;28;20479;-86
2021/07/28 14:27:26;;;;;;;0.00;0.00;;;26.60;98.70;;;;;;5031139;28;20089;-84
2021/07/28 14:30:14;;;;;;;0.00;0.00;;;26.80;97.20;;;;;;5030507;28;20045;-84
2021/07/28 14:33:01;;;;;;;0.00;0.00;;;;;;;;;;5034232;28;20049;-85
2021/07/28 14:35:50;;;;;;;0.00;0.00;;;26.80;97.60;;;;;;5048525;28;20045;-86
2021/07/28 14:38:37;;;;;;;0.00;0.00;;;26.50;97.00;;;;;;5043593;28;20051;-85
2021/07/28 14:41:24;;;;;;;0.00;0.00;;;26.20;96.10;;;;;;5050921;28;20287;-85
2021/07/28 14:44:11;;;;;;;0.00;0.00;;;26.00;96.60;;;;;;5046703;28;20123;-86
2021/07/28 14:46:58;;;;;;;0.00;0.00;;;26.50;97.90;;;;;;5049883;28;20056;-85
2021/07/28 14:49:45;;;;;;;0.00;0.00;;;26.70;96.90;;;;;;5037049;28;20520;-86
2021/07/28 14:52:33;;;;;;;0.00;0.00;;;26.70;95.70;;;;;;5041835;28;20639;-84
2021/07/28 14:55:21;;;;;;;0.00;0.00;;;26.40;96.60;;;;;;5017820;28;20113;-84